Time;durP1;ratioP1;P1;durP2;ratioP2;P2;SDS_P1;SDS_P2;PMS_P1;PMS_P2;Temp;Humidity;BMP_temperature;BMP_pressure;BME280_temperature;BME280_humidity;BME280_pressure;Samples;Min_cycle;Max_cycle;Signal;HPM_P1;HPM_P2
2022/08/12 00:43:01;;;;;;;5.68;2.58;;;;;;;23.58;40.27;101787.22;5076399;28;20048;-53
2022/08/12 00:46:29;;;;;;;4.10;2.70;;;;;;;23.50;40.58;101793.63;5061376;28;20046;-53
2022/08/12 00:48:19;;;;;;;6.30;2.80;;;;;;;23.42;40.96;101791.69;5094840;28;20042;-53
2022/08/12 00:50:49;;;;;;;4.53;2.40;;;;;;;23.43;40.96;101787.75;5095235;28;20074;-54
2022/08/12 00:53:18;;;;;;;4.75;2.30;;;;;;;23.43;40.93;101785.81;5077005;28;20047;-55
2022/08/12 00:55:46;;;;;;;8.32;2.58;;;;;;;23.42;41.15;101784.16;5077205;28;20051;-52
2022/08/12 00:58:17;;;;;;;5.85;2.47;;;;;;;23.40;41.27;101789.22;5077244;28;20044;-51
2022/08/12 01:00:45;;;;;;;5.03;2.70;;;;;;;23.42;41.30;101786.94;5074662;28;20036;-54
2022/08/12 01:12:16;;;;;;;7.15;2.83;;;;;;;23.31;42.02;101794.03;5063811;28;20064;-51
2022/08/12 01:14:44;;;;;;;5.82;2.70;;;;;;;23.26;42.09;101795.00;5094430;28;20046;-54
2022/08/12 01:17:13;;;;;;;5.90;2.70;;;;;;;23.29;42.16;101793.53;5093968;28;20032;-55
2022/08/12 01:19:40;;;;;;;3.95;2.55;;;;;;;23.31;42.17;101791.25;5075978;28;20062;-54
2022/08/12 01:22:54;;;;;;;3.05;2.40;;;;;;;23.32;42.00;101788.09;5057314;28;20110;-55
2022/08/12 01:25:22;;;;;;;6.10;2.60;;;;;;;23.34;42.29;101796.94;5077188;28;20042;-52
2022/08/12 01:27:51;;;;;;;8.00;3.03;;;;;;;23.28;42.40;101792.72;5075497;28;20383;-54
2022/08/12 01:30:20;;;;;;;7.07;2.67;;;;;;;23.26;42.64;101795.00;5092148;28;20399;-56
2022/08/12 01:33:13;;;;;;;5.68;2.55;;;;;;;23.17;42.91;101786.69;5075601;28;20050;-55
2022/08/12 01:35:47;;;;;;;5.50;2.65;;;;;;;23.12;43.10;101794.38;5076165;28;20043;-55
2022/08/12 01:38:35;;;;;;;8.60;3.20;;;;;;;23.02;43.46;101790.00;5093022;28;20482;-52
2022/08/12 01:41:04;;;;;;;8.10;2.85;;;;;;;22.95;43.67;101790.44;5091999;28;20140;-53
2022/08/12 01:43:33;;;;;;;8.27;3.65;;;;;;;22.81;44.07;101784.25;5092954;28;20044;-55
2022/08/12 01:46:25;;;;;;;8.13;3.13;;;;;;;22.79;44.25;101782.94;5075573;28;20043;-50
2022/08/12 01:49:24;;;;;;;9.75;4.50;;;;;;;22.75;44.32;101782.78;5076063;28;20050;-51
2022/08/12 01:52:03;;;;;;;10.13;4.97;;;;;;;22.69;44.69;101786.88;5074562;28;20051;-51
2022/08/12 01:54:49;;;;;;;14.65;4.88;;;;;;;22.59;44.90;101787.22;5092571;28;20050;-51
2022/08/12 01:57:38;;;;;;;9.15;4.38;;;;;;;22.63;45.24;101788.16;5073747;28;20049;-55
2022/08/12 02:00:34;;;;;;;7.38;3.85;;;;;;;22.61;45.32;101780.19;5079368;28;20044;-54
2022/08/12 02:03:18;;;;;;;8.48;4.00;;;;;;;22.50;45.61;101788.00;5075528;28;20417;-52
2022/08/12 02:12:28;;;;;;;7.07;3.60;;;;;;;22.35;46.33;101776.56;5093205;28;20069;-54
2022/08/12 02:15:22;;;;;;;8.68;3.45;;;;;;;22.41;46.74;101776.06;5068273;28;20494;-50
2022/08/12 02:17:55;;;;;;;6.05;3.20;;;;;;;22.34;47.05;101778.50;5073934;28;20054;-49
2022/08/12 02:20:44;;;;;;;5.88;3.25;;;;;;;22.32;47.18;101780.78;5070474;28;20048;-51
2022/08/12 02:23:28;;;;;;;8.32;3.10;;;;;;;22.35;47.29;101773.78;5092020;28;20107;-52
2022/08/12 02:26:03;;;;;;;5.68;3.17;;;;;;;22.27;47.52;101775.38;5075086;28;20040;-49
2022/08/12 02:28:31;;;;;;;5.43;2.80;;;;;;;22.25;47.93;101769.38;5092621;28;20494;-54
2022/08/12 02:31:04;;;;;;;3.60;2.70;;;;;;;22.31;47.84;101770.84;5074584;28;20063;-53
2022/08/12 02:33:32;;;;;;;6.18;3.08;;;;;;;22.35;47.74;101771.81;5091579;28;20067;-55
2022/08/12 02:36:01;;;;;;;5.05;3.00;;;;;;;22.39;47.98;101774.75;5074239;28;20039;-52
2022/08/12 02:38:51;;;;;;;5.00;3.00;;;;;;;22.41;47.85;101772.47;5085628;28;20049;-54
2022/08/12 02:41:25;;;;;;;8.75;2.95;;;;;;;22.39;47.99;101772.78;5090567;28;20055;-53
2022/08/12 02:43:59;;;;;;;6.03;3.15;;;;;;;22.37;48.16;101775.09;5073694;28;20034;-55
2022/08/12 02:46:31;;;;;;;5.97;2.80;;;;;;;22.28;48.54;101775.06;5092888;28;20040;-52
2022/08/12 02:49:13;;;;;;;7.05;2.97;;;;;;;22.25;48.68;101767.41;5075890;28;20046;-53
2022/08/12 02:51:44;;;;;;;4.93;2.80;;;;;;;22.27;48.88;101769.84;5076556;28;20048;-56
2022/08/12 02:54:12;;;;;;;8.70;2.90;;;;;;;22.32;48.84;101778.00;5094482;28;20040;-53
2022/08/12 02:57:00;;;;;;;8.57;2.90;;;;;;;22.36;48.96;101775.41;5072701;28;20052;-57
2022/08/12 02:59:49;;;;;;;7.63;3.00;;;;;;;22.20;49.49;101772.25;5078479;28;20509;-53
2022/08/12 03:02:20;;;;;;;9.45;3.70;;;;;;;22.17;49.69;101770.94;5092845;28;20513;-55
2022/08/12 03:04:55;;;;;;;8.73;3.15;;;;;;;22.17;49.69;101759.03;5074198;28;20047;-57
2022/08/12 03:07:23;;;;;;;5.80;3.00;;;;;;;22.16;49.84;101762.94;5071349;28;20048;-57
2022/08/12 03:10:12;;;;;;;5.15;2.70;;;;;;;22.22;49.79;101761.66;5091572;28;20516;-53
2022/08/12 03:12:46;;;;;;;8.27;3.30;;;;;;;22.26;49.85;101757.13;5092654;28;20032;-53
2022/08/12 03:15:21;;;;;;;6.85;3.40;;;;;;;22.20;50.00;101758.38;5092562;28;20040;-53
2022/08/12 03:18:00;;;;;;;11.13;3.28;;;;;;;22.12;50.44;101760.81;5091335;28;20949;-56
2022/08/12 03:20:48;;;;;;;7.47;3.13;;;;;;;22.08;50.69;101761.78;5077294;28;20040;-56
2022/08/12 03:23:16;;;;;;;6.53;3.30;;;;;;;21.98;51.05;101756.53;5092078;28;20051;-55
2022/08/12 03:25:57;;;;;;;8.60;3.20;;;;;;;21.83;51.54;101764.16;5090283;28;20040;-56
2022/08/12 03:31:12;;;;;;;5.75;3.10;;;;;;;21.72;52.07;101754.50;5079809;28;20054;-55
2022/08/12 03:33:43;;;;;;;4.78;3.20;;;;;;;21.64;52.52;101761.66;5096081;28;20043;-55
2022/08/12 03:36:33;;;;;;;5.35;3.10;;;;;;;21.62;52.77;101760.31;5077681;28;20073;-53
2022/08/12 03:42:00;;;;;;;5.45;2.72;;;;;;;21.64;52.90;101758.88;5096052;28;20480;-56
2022/08/12 04:01:56;;;;;;;5.78;3.38;;;;;;;21.70;53.87;101745.69;5094820;28;20059;-56
2022/08/12 04:04:33;;;;;;;5.85;3.33;;;;;;;21.63;53.99;101751.69;5076423;28;20044;-58
2022/08/12 04:07:05;;;;;;;7.03;3.53;;;;;;;21.64;54.16;101753.31;5093994;28;20044;-56
2022/08/12 04:09:34;;;;;;;9.70;3.47;;;;;;;21.62;54.32;101754.78;5094338;28;20052;-55
2022/08/12 04:15:13;;;;;;;8.85;3.80;;;;;;;21.58;54.75;101765.72;5080634;28;20040;-56
2022/08/12 04:17:41;;;;;;;12.05;3.70;;;;;;;21.54;54.60;101759.16;5077453;28;20100;-56
2022/08/12 04:20:29;;;;;;;9.00;3.42;;;;;;;21.60;54.69;101757.91;5059706;28;20400;-55
2022/08/12 04:22:58;;;;;;;4.97;3.25;;;;;;;21.56;54.79;101765.22;5077239;28;20483;-56
2022/08/12 04:25:27;;;;;;;7.07;3.47;;;;;;;21.52;54.86;101766.16;5094605;28;20040;-52
2022/08/12 04:27:55;;;;;;;7.72;3.35;;;;;;;21.55;55.01;101765.53;5077505;28;20044;-54
2022/08/12 04:30:39;;;;;;;8.45;3.53;;;;;;;21.56;55.04;101762.44;5093772;28;20452;-54
2022/08/12 04:33:12;;;;;;;6.93;3.72;;;;;;;21.59;55.11;101777.63;5090387;28;20453;-56
2022/08/12 04:35:40;;;;;;;5.13;3.40;;;;;;;21.55;55.27;101760.81;5076977;28;20036;-48
2022/08/12 04:38:29;;;;;;;7.75;3.30;;;;;;;21.54;55.36;101764.72;5091514;28;20040;-50
2022/08/12 04:40:57;;;;;;;5.97;3.28;;;;;;;21.59;55.24;101760.97;5069023;28;20051;-50
2022/08/12 04:43:25;;;;;;;9.07;4.20;;;;;;;21.61;55.23;101769.81;5088620;28;20050;-54
2022/08/12 04:46:33;;;;;;;6.75;3.78;;;;;;;21.56;55.49;101762.44;5093627;28;21065;-49
2022/08/12 04:49:23;;;;;;;9.27;3.45;;;;;;;21.50;55.72;101760.94;5094116;28;20048;-54
2022/08/12 04:51:51;;;;;;;6.55;3.45;;;;;;;21.46;56.08;101762.72;5043351;28;20047;-54
2022/08/12 04:54:26;;;;;;;8.40;4.55;;;;;;;21.45;56.09;101763.84;5094502;28;20566;-55
2022/08/12 04:56:54;;;;;;;10.35;4.60;;;;;;;21.36;56.37;101757.41;5094622;28;20044;-55
2022/08/12 04:59:35;;;;;;;9.25;4.68;;;;;;;21.35;56.44;101762.13;5076837;28;20097;-52
2022/08/12 05:02:19;;;;;;;7.00;3.67;;;;;;;21.33;56.82;101766.38;5078676;28;20050;-48
2022/08/12 05:04:55;;;;;;;8.77;4.60;;;;;;;21.38;56.53;101769.00;5095302;28;20036;-49
2022/08/12 05:07:28;;;;;;;8.77;4.07;;;;;;;21.46;56.53;101768.28;5083020;28;20032;-50
2022/08/12 05:09:55;;;;;;;8.27;3.85;;;;;;;21.51;56.43;101768.13;5075850;28;20040;-48
2022/08/12 05:12:38;;;;;;;10.38;4.70;;;;;;;21.53;56.13;101771.41;5076483;28;20036;-48
2022/08/12 05:15:07;;;;;;;10.75;4.80;;;;;;;21.59;56.02;101767.34;5075049;28;20117;-48
2022/08/12 05:17:46;;;;;;;8.00;4.43;;;;;;;21.54;56.29;101763.91;5079338;28;20044;-55
2022/08/12 05:20:14;;;;;;;8.93;4.38;;;;;;;21.53;56.39;101765.84;5093917;28;20040;-52
2022/08/12 05:22:44;;;;;;;13.13;4.75;;;;;;;21.58;56.27;101776.81;5093953;28;20043;-50
2022/08/12 05:25:14;;;;;;;14.93;5.00;;;;;;;21.60;55.97;101777.31;5075457;28;20100;-55
2022/08/12 05:27:45;;;;;;;16.35;5.45;;;;;;;21.62;55.89;101771.41;5075268;28;20498;-55
2022/08/12 05:30:33;;;;;;;10.57;5.10;;;;;;;21.64;55.96;101775.50;5092073;28;20047;-55
2022/08/12 05:33:05;;;;;;;13.25;4.93;;;;;;;21.67;55.91;101774.91;5076688;28;20056;-52
2022/08/12 05:35:41;;;;;;;14.63;5.57;;;;;;;21.68;55.67;101776.50;5042723;28;20032;-54
2022/08/12 05:40:59;;;;;;;14.25;5.40;;;;;;;21.69;55.26;101783.72;5090047;28;20081;-55
2022/08/12 05:43:27;;;;;;;10.40;5.10;;;;;;;21.69;55.11;101783.72;5071703;28;20040;-59
2022/08/12 05:45:55;;;;;;;10.88;5.43;;;;;;;21.64;55.33;101783.84;5071924;28;20035;-57
2022/08/12 05:48:23;;;;;;;9.43;5.18;;;;;;;21.62;55.50;101782.53;5071968;28;20048;-55
2022/08/12 05:50:51;;;;;;;9.32;5.55;;;;;;;21.58;55.62;101782.34;5089584;28;20044;-54
2022/08/12 05:53:19;;;;;;;12.15;6.60;;;;;;;21.54;55.77;101784.13;5089954;28;20397;-52
2022/08/12 05:55:47;;;;;;;11.52;6.20;;;;;;;21.55;55.63;101784.94;5090480;28;20040;-51
2022/08/12 05:58:35;;;;;;;13.50;6.95;;;;;;;21.53;55.91;101793.59;5089922;28;20109;-51
2022/08/12 06:01:02;;;;;;;14.75;6.40;;;;;;;21.53;55.51;101795.53;5089112;28;20043;-49
2022/08/12 06:04:08;;;;;;;12.15;5.32;;;;;;;21.62;55.14;101799.16;5065610;28;20036;-49
2022/08/12 06:06:40;;;;;;;20.45;5.57;;;;;;;21.67;54.34;101791.53;5071944;28;20605;-53
2022/08/12 06:09:10;;;;;;;9.35;5.28;;;;;;;21.73;54.05;101788.63;5089979;28;20124;-56
2022/08/12 06:11:41;;;;;;;12.60;5.18;;;;;;;21.77;53.63;101789.59;5071939;28;20047;-57
2022/08/12 06:14:30;;;;;;;10.55;4.63;;;;;;;21.81;53.51;101791.41;5073371;28;20043;-51
2022/08/12 06:16:58;;;;;;;14.75;5.90;;;;;;;21.85;53.55;101797.94;5091079;28;20406;-47
2022/08/12 06:19:47;;;;;;;12.02;5.03;;;;;;;21.86;53.49;101798.78;5090414;28;20063;-50
2022/08/12 06:22:36;;;;;;;17.00;6.00;;;;;;;21.86;53.34;101790.44;5091862;28;20040;-53
2022/08/12 06:25:04;;;;;;;13.95;5.60;;;;;;;21.81;53.32;101791.41;5075486;28;20044;-52
2022/08/12 06:27:33;;;;;;;12.25;5.22;;;;;;;21.84;53.14;101793.56;5091725;28;20040;-49
2022/08/12 06:30:01;;;;;;;10.25;4.90;;;;;;;21.88;52.99;101793.72;5092243;28;20432;-50
2022/08/12 06:32:38;;;;;;;9.30;4.78;;;;;;;21.91;52.62;101799.47;5092638;28;20048;-50
2022/08/12 06:35:26;;;;;;;12.70;4.90;;;;;;;21.92;52.94;101805.81;5092909;28;20070;-51
2022/08/12 06:38:35;;;;;;;13.52;5.93;;;;;;;21.97;52.99;101793.75;5090043;28;20036;-49
2022/08/12 06:43:52;;;;;;;15.23;6.00;;;;;;;22.00;53.03;101793.91;5092968;28;20048;-56
2022/08/12 06:46:35;;;;;;;9.70;5.35;;;;;;;22.01;53.15;101784.47;5080465;28;20044;-53
2022/08/12 06:49:05;;;;;;;15.27;6.05;;;;;;;22.04;53.04;101789.38;5075231;28;20051;-51
2022/08/12 06:51:33;;;;;;;13.93;6.38;;;;;;;22.05;53.34;101779.06;5092969;28;20048;-47
2022/08/12 06:54:01;;;;;;;16.17;5.63;;;;;;;22.06;53.22;101781.53;5092355;28;20051;-47
2022/08/12 06:56:29;;;;;;;14.82;5.93;;;;;;;22.10;53.26;101778.91;5092222;28;20066;-48
2022/08/12 06:59:20;;;;;;;13.82;5.80;;;;;;;22.15;53.24;101783.50;5077637;28;20036;-48
2022/08/12 07:01:48;;;;;;;15.95;5.80;;;;;;;22.15;52.99;101777.94;5092432;28;20040;-48
2022/08/12 07:04:19;;;;;;;20.05;6.28;;;;;;;22.18;53.05;101771.78;5094425;28;20040;-51
2022/08/12 07:07:08;;;;;;;12.57;6.03;;;;;;;22.24;52.47;101770.50;5096317;28;20048;-48
2022/08/12 07:09:38;;;;;;;17.65;6.10;;;;;;;22.28;52.58;101763.16;5078782;28;20062;-50
2022/08/12 07:12:26;;;;;;;16.23;5.93;;;;;;;22.35;52.07;101765.47;5082141;28;20383;-52
2022/08/12 07:15:00;;;;;;;15.32;6.00;;;;;;;22.40;51.57;101768.06;5096291;28;20052;-50
2022/08/12 07:17:34;;;;;;;12.60;5.53;;;;;;;22.44;51.54;101764.31;5091274;28;20044;-50
2022/08/12 07:20:08;;;;;;;14.32;5.85;;;;;;;22.49;51.27;101772.50;5096498;28;20105;-50
2022/08/12 07:22:56;;;;;;;16.45;5.65;;;;;;;22.54;50.57;101775.09;5080944;28;20494;-50
2022/08/12 07:25:30;;;;;;;13.50;5.35;;;;;;;22.62;50.14;101786.53;5095118;28;20046;-50
2022/08/12 07:28:16;;;;;;;19.20;6.40;;;;;;;22.68;50.38;101786.06;5080198;28;20032;-50
2022/08/12 07:30:45;;;;;;;11.70;5.13;;;;;;;22.74;50.14;101789.47;5086453;28;20104;-51
2022/08/12 07:33:15;;;;;;;11.23;5.40;;;;;;;22.79;50.16;101792.09;5057941;28;20503;-51
2022/08/12 07:35:44;;;;;;;11.65;5.20;;;;;;;22.85;49.57;101792.72;5055730;28;20057;-52
2022/08/12 07:38:32;;;;;;;19.77;5.90;;;;;;;22.89;49.34;101791.75;5054417;28;20045;-53
2022/08/12 07:41:05;;;;;;;15.32;6.13;;;;;;;22.93;49.04;101789.97;5043693;28;20506;-49
2022/08/12 07:43:36;;;;;;;12.52;4.97;;;;;;;22.99;49.36;101800.94;5055117;28;20119;-53
2022/08/12 07:46:24;;;;;;;11.52;5.00;;;;;;;23.01;49.21;101796.69;5054594;28;20057;-49
2022/08/12 07:48:57;;;;;;;11.80;5.18;;;;;;;23.05;49.29;101794.06;5055552;28;20396;-51
2022/08/12 07:51:26;;;;;;;17.33;6.22;;;;;;;23.09;49.21;101787.53;5055668;28;20037;-53
2022/08/12 07:53:56;;;;;;;11.68;4.97;;;;;;;23.14;48.27;101794.88;5055641;28;20059;-51
2022/08/12 07:56:30;;;;;;;11.95;5.43;;;;;;;23.19;48.23;101794.69;5055076;28;20055;-54
2022/08/12 07:58:59;;;;;;;14.82;5.18;;;;;;;23.22;47.98;101791.25;5052979;28;20043;-52
2022/08/12 08:01:28;;;;;;;12.73;4.53;;;;;;;23.25;47.97;101795.34;5042634;28;20045;-55
2022/08/12 08:06:47;;;;;;;14.70;5.28;;;;;;;23.36;48.13;101794.66;5048414;28;20041;-53
2022/08/12 08:09:17;;;;;;;14.05;5.40;;;;;;;23.39;46.81;101793.97;5055173;28;20392;-56
2022/08/12 08:14:31;;;;;;;15.63;4.30;;;;;;;23.57;44.92;101799.47;5053012;28;20061;-56
2022/08/12 08:17:19;;;;;;;13.40;4.20;;;;;;;23.60;44.10;101796.88;5054406;28;20135;-55
2022/08/12 08:19:51;;;;;;;12.85;4.30;;;;;;;23.64;43.87;101797.00;5049827;28;20040;-55
2022/08/12 08:22:50;;;;;;;9.63;4.68;;;;;;;23.69;43.65;101799.63;5054507;28;20487;-52
2022/08/12 08:25:19;;;;;;;46.30;8.90;;;;;;;23.74;43.47;101805.03;5054633;28;20040;-57
2022/08/12 08:28:23;;;;;;;16.63;5.03;;;;;;;23.81;43.10;101802.53;5054226;28;20403;-51
2022/08/12 08:30:52;;;;;;;15.70;4.53;;;;;;;23.87;43.04;101802.34;5054663;28;20045;-51
2022/08/12 08:33:20;;;;;;;10.73;4.25;;;;;;;23.91;43.80;101814.44;5053142;28;20056;-51
2022/08/12 08:36:11;;;;;;;12.70;4.78;;;;;;;23.94;42.91;101811.00;5053863;28;20056;-52
2022/08/12 08:38:44;;;;;;;14.40;4.43;;;;;;;23.97;42.95;101808.34;5053365;28;20495;-54
2022/08/12 08:44:36;;;;;;;11.68;4.57;;;;;;;24.01;43.29;101808.50;5044089;28;20036;-52
2022/08/12 08:47:06;;;;;;;14.48;4.47;;;;;;;24.17;42.72;101806.78;5054258;28;20502;-55
2022/08/12 08:49:35;;;;;;;12.75;4.60;;;;;;;24.24;42.32;101801.50;5054768;28;20045;-56
2022/08/12 08:52:08;;;;;;;13.10;4.50;;;;;;;24.24;42.48;101801.50;5053648;28;20041;-53
2022/08/12 08:54:56;;;;;;;12.60;4.05;;;;;;;24.22;42.98;101809.38;5050891;28;20444;-56
2022/08/12 08:57:49;;;;;;;8.85;4.40;;;;;;;24.20;43.09;101797.75;5046510;28;20055;-56
2022/08/12 09:00:22;;;;;;;14.73;4.50;;;;;;;24.22;42.76;101792.66;5053006;28;20041;-57
2022/08/12 09:02:51;;;;;;;13.63;4.18;;;;;;;24.35;41.70;101801.09;5054288;28;20041;-50
2022/08/12 09:05:27;;;;;;;9.10;3.72;;;;;;;24.46;41.57;101793.97;5051195;28;20051;-56
2022/08/12 09:08:14;;;;;;;15.10;4.32;;;;;;;24.48;41.89;101802.81;5052583;28;20041;-54
2022/08/12 09:10:57;;;;;;;7.80;3.53;;;;;;;24.54;41.48;101798.69;5052387;28;20429;-54
2022/08/12 09:13:26;;;;;;;10.75;3.75;;;;;;;24.69;40.04;101799.22;5053770;28;20181;-52
2022/08/12 09:16:16;;;;;;;10.27;4.00;;;;;;;24.83;39.72;101792.22;5053922;28;20041;-56
2022/08/12 09:19:04;;;;;;;9.85;3.72;;;;;;;24.80;39.49;101792.09;5054382;28;20043;-53
2022/08/12 09:21:32;;;;;;;9.38;3.78;;;;;;;24.80;39.56;101795.69;5055018;28;20049;-54
2022/08/12 09:24:20;;;;;;;7.32;3.90;;;;;;;24.76;39.75;101791.13;5054268;28;20483;-56
2022/08/12 09:26:48;;;;;;;7.68;3.85;;;;;;;24.76;39.79;101799.50;5051835;28;20041;-50
2022/08/12 09:29:19;;;;;;;8.75;3.83;;;;;;;24.81;38.94;101790.91;5053738;28;20049;-51
2022/08/12 09:32:08;;;;;;;11.77;3.80;;;;;;;24.90;38.79;101791.66;5061075;28;20060;-53
2022/08/12 09:34:56;;;;;;;7.43;3.42;;;;;;;24.95;39.02;101793.41;5072678;28;20418;-55
2022/08/12 09:37:27;;;;;;;7.93;3.60;;;;;;;24.96;38.78;101787.47;5073253;28;20036;-53
2022/08/12 09:40:35;;;;;;;11.55;3.80;;;;;;;24.96;39.06;101781.09;5073048;28;20040;-55
2022/08/12 09:46:21;;;;;;;5.05;3.15;;;;;;;25.12;38.30;101778.50;5072341;28;20037;-55
2022/08/12 09:48:52;;;;;;;8.95;3.38;;;;;;;25.30;37.65;101779.94;5073409;28;20051;-57
2022/08/12 09:51:25;;;;;;;9.25;3.50;;;;;;;25.35;37.10;101768.59;5073384;28;20559;-56
2022/08/12 09:54:25;;;;;;;7.50;2.90;;;;;;;25.43;36.77;101770.44;5071749;28;20495;-50
2022/08/12 09:57:08;;;;;;;9.43;3.10;;;;;;;25.43;35.54;101770.44;5072814;28;20051;-52
2022/08/12 09:59:56;;;;;;;7.88;3.17;;;;;;;25.64;34.64;101769.53;5072104;28;20044;-53
2022/08/12 10:03:02;;;;;;;14.27;3.40;;;;;;;25.78;34.77;101766.38;5072937;28;20028;-55
2022/08/12 10:05:35;;;;;;;7.43;3.13;;;;;;;25.80;35.09;101764.88;5072669;28;20399;-57
2022/08/12 10:08:26;;;;;;;6.35;3.45;;;;;;;25.83;35.07;101758.63;5072026;28;20072;-58
2022/08/12 10:13:48;;;;;;;7.63;3.25;;;;;;;25.99;33.25;101766.31;5070785;28;20047;-55
2022/08/12 10:16:30;;;;;;;8.15;4.13;;;;;;;26.09;33.34;101761.03;5070618;28;20044;-58
2022/08/12 10:19:05;;;;;;;7.90;3.25;;;;;;;26.19;33.34;101748.56;5071095;28;20044;-58
2022/08/12 10:21:44;;;;;;;7.70;3.47;;;;;;;26.32;33.64;101752.97;5071716;28;20051;-55
2022/08/12 10:24:15;;;;;;;9.52;3.42;;;;;;;26.42;33.51;101751.66;5071667;28;20390;-57
2022/08/12 10:29:44;;;;;;;10.25;3.60;;;;;;;26.63;33.15;101750.72;5071481;28;20044;-58
2022/08/12 10:32:32;;;;;;;9.00;3.53;;;;;;;26.55;33.33;101746.88;5083725;28;20052;-58
2022/08/12 10:35:14;;;;;;;10.40;3.70;;;;;;;26.56;33.53;101754.09;5091552;28;20247;-58
2022/08/12 10:37:44;;;;;;;7.75;3.45;;;;;;;26.47;33.57;101725.44;5091902;28;20067;-58
2022/08/12 10:40:32;;;;;;;14.20;5.75;;;;;;;26.63;32.85;101722.75;5092405;28;20070;-58
2022/08/12 10:43:42;;;;;;;16.60;8.43;;;;;;;26.53;33.00;101730.47;5077713;28;20051;-54
2022/08/12 10:46:34;;;;;;;9.88;3.42;;;;;;;26.66;32.06;101722.84;5071111;28;20044;-59
2022/08/12 10:49:01;;;;;;;12.38;6.03;;;;;;;26.73;32.63;101723.03;5082478;28;20055;-50
2022/08/12 10:52:09;;;;;;;15.52;4.68;;;;;;;26.76;33.21;101713.94;5081504;28;20532;-54
2022/08/12 10:55:17;;;;;;;15.15;6.90;;;;;;;26.65;33.70;101703.63;5080226;28;20044;-50
2022/08/12 10:57:45;;;;;;;9.98;4.47;;;;;;;26.55;33.98;101707.75;5092009;28;20044;-53
2022/08/12 11:00:33;;;;;;;10.65;4.40;;;;;;;26.47;34.24;101703.91;5092376;28;20454;-57
2022/08/12 11:03:20;;;;;;;7.22;3.90;;;;;;;26.67;33.40;101699.28;5091857;28;20482;-51
2022/08/12 11:06:10;;;;;;;10.63;3.85;;;;;;;26.93;32.04;101687.63;4385313;28;10000642;-53
2022/08/12 11:08:59;;;;;;;14.02;6.68;;;;;;;26.93;32.38;101689.59;5089354;28;20047;-56
2022/08/12 11:11:29;;;;;;;31.02;12.80;;;;;;;26.81;32.93;101692.47;5089298;28;20543;-54
2022/08/12 11:14:26;;;;;;;7.28;3.35;;;;;;;26.89;32.13;101686.72;5068653;28;20052;-52
2022/08/12 11:17:14;;;;;;;9.07;3.75;;;;;;;26.92;32.34;101679.59;5087273;28;20395;-57
2022/08/12 11:20:02;;;;;;;9.88;4.03;;;;;;;27.03;32.24;101685.47;5088591;28;20782;-57
2022/08/12 11:22:31;;;;;;;6.65;3.40;;;;;;;27.03;32.28;101669.50;5089000;28;20058;-57
2022/08/12 11:24:59;;;;;;;13.60;5.35;;;;;;;26.98;32.71;101670.56;5088212;28;20044;-58
2022/08/12 11:27:27;;;;;;;11.13;4.63;;;;;;;27.09;32.62;101673.66;5088041;28;20375;-52
2022/08/12 11:30:16;;;;;;;12.77;4.22;;;;;;;27.21;30.73;101666.38;5086084;28;20417;-57
2022/08/12 11:32:59;;;;;;;8.93;3.08;;;;;;;27.36;30.23;101665.53;5073578;28;20062;-57
2022/08/12 11:35:26;;;;;;;6.82;3.47;;;;;;;27.63;29.88;101674.97;5088508;28;20070;-50
2022/08/12 11:37:58;;;;;;;9.23;3.15;;;;;;;27.73;29.97;101670.81;5088159;28;20067;-55
2022/08/12 11:40:28;;;;;;;9.13;3.15;;;;;;;27.73;29.76;101673.59;5089159;28;20044;-55
2022/08/12 11:42:59;;;;;;;13.45;3.33;;;;;;;27.71;29.56;101670.34;5088415;28;20044;-52
2022/08/12 11:45:47;;;;;;;8.80;3.50;;;;;;;27.70;29.68;101663.94;5073636;28;20050;-54
2022/08/12 11:48:20;;;;;;;5.18;3.08;;;;;;;27.83;29.20;101651.47;5071434;28;20036;-58
2022/08/12 11:50:54;;;;;;;19.70;9.07;;;;;;;27.72;29.88;101658.00;5090880;28;20073;-57
2022/08/12 11:53:22;;;;;;;18.35;9.18;;;;;;;27.54;30.33;101652.81;5092700;28;20040;-55
2022/08/12 11:56:09;;;;;;;8.63;3.60;;;;;;;27.54;30.16;101654.75;5091750;28;20036;-57
2022/08/12 11:58:38;;;;;;;9.50;4.25;;;;;;;27.52;30.39;101646.75;5091302;28;20044;-56
2022/08/12 12:01:25;;;;;;;11.70;3.97;;;;;;;27.48;30.15;101640.25;5092180;28;20043;-54
2022/08/12 12:04:13;;;;;;;11.23;5.70;;;;;;;27.48;30.25;101637.44;5092150;28;20490;-57
2022/08/12 12:06:56;;;;;;;12.00;5.13;;;;;;;27.46;30.41;101642.59;5089187;28;20048;-54
2022/08/12 12:09:35;;;;;;;15.88;7.70;;;;;;;27.44;30.43;101633.75;5091212;28;20085;-55
2022/08/12 12:12:22;;;;;;;8.88;3.70;;;;;;;27.41;30.67;101626.09;5092431;28;20050;-57
2022/08/12 12:14:51;;;;;;;20.95;11.13;;;;;;;27.54;30.49;101622.00;5092140;28;20040;-53
2022/08/12 12:17:22;;;;;;;14.25;5.20;;;;;;;27.62;30.16;101622.97;5091988;28;20044;-56
2022/08/12 12:19:51;;;;;;;28.08;14.77;;;;;;;27.55;30.57;101618.00;5072205;28;20080;-57
2022/08/12 12:22:21;;;;;;;18.75;9.25;;;;;;;27.48;30.65;101629.06;5092178;28;20036;-57
2022/08/12 12:25:07;;;;;;;10.15;4.18;;;;;;;27.49;30.55;101619.50;5073078;28;20409;-57
2022/08/12 12:27:53;;;;;;;28.27;14.75;;;;;;;27.57;31.12;101618.47;5078447;28;20046;-57
2022/08/12 12:30:33;;;;;;;18.95;6.75;;;;;;;27.60;30.05;101630.91;5073062;28;20044;-55
2022/08/12 12:33:01;;;;;;;11.68;3.90;;;;;;;27.77;29.84;101618.50;5090719;28;20067;-56
2022/08/12 12:35:29;;;;;;;10.98;3.67;;;;;;;28.14;28.68;101620.88;5073567;28;20065;-54
2022/08/12 12:38:18;;;;;;;6.82;3.33;;;;;;;28.14;29.15;101618.09;5076355;28;20039;-53
2022/08/12 12:40:47;;;;;;;12.23;3.53;;;;;;;28.14;29.23;101612.47;5090163;28;20520;-56
2022/08/12 12:43:17;;;;;;;8.82;3.60;;;;;;;28.22;29.37;101617.06;5073139;28;20043;-56
2022/08/12 12:46:05;;;;;;;14.98;8.02;;;;;;;28.07;29.73;101598.34;5090903;28;20057;-53
2022/08/12 12:48:35;;;;;;;6.45;3.58;;;;;;;28.10;29.29;101594.81;5073960;28;20447;-52
2022/08/12 12:51:15;;;;;;;13.38;4.07;;;;;;;28.10;29.55;101589.22;5091201;28;20028;-55
2022/08/12 12:54:02;;;;;;;9.65;3.88;;;;;;;28.25;28.88;101596.69;5090821;28;20055;-54
2022/08/12 12:56:56;;;;;;;13.07;3.50;;;;;;;28.24;29.30;101583.88;5077348;28;20040;-52
2022/08/12 12:59:26;;;;;;;10.15;4.07;;;;;;;28.20;29.49;101591.41;5090770;28;20427;-50
2022/08/12 13:02:14;;;;;;;7.65;4.05;;;;;;;28.23;29.43;101588.66;5090363;28;20036;-55
2022/08/12 13:04:58;;;;;;;23.67;13.18;;;;;;;28.13;30.60;101574.44;5090386;28;20047;-53
2022/08/12 13:07:26;;;;;;;16.40;6.85;;;;;;;28.06;29.41;101585.50;5090923;28;20398;-53
2022/08/12 13:10:14;;;;;;;12.45;5.78;;;;;;;28.07;29.84;101587.13;5090919;28;20405;-55
2022/08/12 13:12:42;;;;;;;8.80;3.30;;;;;;;28.20;29.38;101574.59;5090584;28;20067;-57
2022/08/12 13:15:14;;;;;;;4.97;2.97;;;;;;;28.42;29.17;101570.19;5090513;28;20048;-53
2022/08/12 13:18:07;;;;;;;10.23;3.42;;;;;;;28.66;27.91;101569.84;5077693;28;20044;-57
2022/08/12 13:20:35;;;;;;;11.70;3.75;;;;;;;28.71;27.80;101571.53;5090478;28;20519;-56
2022/08/12 13:23:11;;;;;;;6.50;3.42;;;;;;;28.62;27.61;101573.78;5088667;28;20051;-54
2022/08/12 13:26:00;;;;;;;7.82;3.40;;;;;;;28.59;27.29;101574.53;5088547;28;20040;-51
2022/08/12 13:28:29;;;;;;;6.90;2.95;;;;;;;28.64;26.92;101566.59;5090702;28;20048;-55
2022/08/12 13:30:58;;;;;;;8.23;3.30;;;;;;;28.68;27.00;101572.28;5072827;28;20040;-57
2022/08/12 13:33:28;;;;;;;9.02;3.83;;;;;;;28.68;26.93;101569.50;5089321;28;20056;-53
2022/08/12 13:36:20;;;;;;;8.48;3.22;;;;;;;28.76;26.80;101562.00;5061862;28;20064;-55
2022/08/12 13:38:50;;;;;;;7.05;3.28;;;;;;;28.80;26.71;101574.09;5091011;28;20048;-54
2022/08/12 13:41:40;;;;;;;7.07;3.00;;;;;;;28.80;26.33;101563.69;5088324;28;20127;-53
2022/08/12 13:44:10;;;;;;;10.15;3.50;;;;;;;28.67;27.00;101563.06;5089002;28;20043;-55
2022/08/12 13:46:40;;;;;;;3.92;2.95;;;;;;;28.65;26.89;101561.84;5053122;28;20044;-50
2022/08/12 13:49:12;;;;;;;9.15;3.17;;;;;;;28.67;26.92;101559.44;5069402;28;20048;-52
2022/08/12 13:52:00;;;;;;;6.65;3.20;;;;;;;28.83;26.02;101556.50;5090821;28;20059;-58
2022/08/12 13:54:28;;;;;;;7.57;3.78;;;;;;;29.00;26.03;101560.78;5087961;28;20048;-51
2022/08/12 13:56:56;;;;;;;10.23;4.00;;;;;;;28.95;26.43;101552.69;5090316;28;20051;-51